Time;durP1;ratioP1;P1;durP2;ratioP2;P2;SDS_P1;SDS_P2;PMS_P1;PMS_P2;Temp;Humidity;BMP_temperature;BMP_pressure;BME280_temperature;BME280_humidity;BME280_pressure;Samples;Min_cycle;Max_cycle;Signal;HPM_P1;HPM_P2
2023/01/06 00:01:07;;;;;;;16.20;8.83;;;;;;;7.76;91.14;94813.47;5072844;28;20229;-52
2023/01/06 00:03:33;;;;;;;16.67;9.30;;;;;;;7.87;90.88;94830.41;5072509;28;20216;-57
2023/01/06 00:06:00;;;;;;;13.17;7.90;;;;;;;7.81;91.46;94834.22;5072805;28;20204;-54
2023/01/06 00:08:26;;;;;;;14.00;7.70;;;;;;;7.74;91.91;94829.69;5072704;28;20188;-57
2023/01/06 00:10:52;;;;;;;10.53;6.33;;;;;;;7.69;92.86;94817.38;5072533;28;20342;-55
2023/01/06 00:13:17;;;;;;;11.83;6.83;;;;;;;7.78;93.45;94811.63;5072377;28;20228;-53
2023/01/06 00:15:42;;;;;;;11.93;7.17;;;;;;;7.89;92.86;94828.59;5072272;28;20209;-54
2023/01/06 00:18:08;;;;;;;12.30;6.80;;;;;;;7.90;93.40;94827.69;5072301;28;20192;-56
2023/01/06 00:20:33;;;;;;;11.67;6.20;;;;;;;7.88;92.62;94845.50;5054786;28;20236;-57
2023/01/06 00:22:59;;;;;;;9.17;5.93;;;;;;;7.79;92.48;94843.63;5072093;28;20250;-57
2023/01/06 00:25:24;;;;;;;9.43;5.73;;;;;;;7.99;92.99;94860.75;5054083;28;20201;-55
2023/01/06 00:27:49;;;;;;;7.40;5.73;;;;;;;8.04;93.82;94843.47;5071848;28;20570;-53
2023/01/06 00:30:15;;;;;;;13.43;6.60;;;;;;;8.12;94.01;94850.53;5071549;28;20216;-57
2023/01/06 00:32:40;;;;;;;9.73;6.00;;;;;;;7.93;92.85;94873.00;5071090;28;20275;-54
2023/01/06 00:35:06;;;;;;;10.77;6.30;;;;;;;7.90;93.02;94866.44;5071309;28;20219;-58
2023/01/06 00:37:31;;;;;;;9.60;5.43;;;;;;;7.97;91.90;94870.16;5070308;28;20191;-57
2023/01/06 00:39:57;;;;;;;7.20;5.00;;;;;;;8.00;91.74;94871.69;5071265;28;20578;-56
2023/01/06 00:42:23;;;;;;;7.10;5.07;;;;;;;8.11;90.97;94880.13;5069832;28;20189;-57
2023/01/06 00:44:50;;;;;;;9.00;5.10;;;;;;;8.21;90.37;94888.66;5070783;28;20216;-53
2023/01/06 00:47:16;;;;;;;7.00;4.70;;;;;;;8.24;90.57;94892.72;5070395;28;20276;-55
2023/01/06 00:49:41;;;;;;;8.60;5.07;;;;;;;8.27;90.89;94895.03;5070846;28;20303;-56
2023/01/06 00:52:07;;;;;;;8.93;4.57;;;;;;;8.19;91.02;94887.97;5071507;28;20191;-56
2023/01/06 00:54:35;;;;;;;7.60;4.40;;;;;;;8.43;90.34;94920.88;5053168;28;20224;-55
2023/01/06 00:57:01;;;;;;;7.53;4.97;;;;;;;8.43;91.01;94916.63;5070484;28;20228;-54
2023/01/06 00:59:26;;;;;;;9.03;4.83;;;;;;;8.48;90.55;94909.50;5070144;28;20232;-56
2023/01/06 01:01:55;;;;;;;7.37;4.60;;;;;;;8.52;90.55;94914.34;5070674;28;20216;-54
2023/01/06 01:04:22;;;;;;;7.87;5.27;;;;;;;8.53;91.13;94904.09;5070572;28;20208;-57
2023/01/06 01:06:48;;;;;;;7.13;4.13;;;;;;;8.50;91.23;94893.38;5071515;28;20655;-57
2023/01/06 01:09:17;;;;;;;6.20;4.27;;;;;;;8.55;91.40;94882.00;5070870;28;20227;-57
2023/01/06 01:14:26;;;;;;;6.20;3.90;;;;;;;8.57;91.81;94872.56;5071826;28;20247;-56
2023/01/06 01:16:51;;;;;;;9.07;4.30;;;;;;;8.69;92.21;94891.91;5071432;28;20224;-55
2023/01/06 01:19:18;;;;;;;6.97;4.20;;;;;;;8.75;92.60;94885.59;5071402;28;20666;-57
2023/01/06 01:21:44;;;;;;;5.63;3.90;;;;;;;8.76;92.18;94890.56;5071388;28;20264;-59
2023/01/06 01:24:17;;;;;;;8.07;4.37;;;;;;;8.82;92.32;94894.38;5071166;28;20177;-56
2023/01/06 01:26:43;;;;;;;7.93;4.67;;;;;;;8.84;92.39;94895.88;5071322;28;20677;-55
2023/01/06 01:29:11;;;;;;;6.90;4.07;;;;;;;8.81;92.78;94877.53;5071185;28;20208;-54
2023/01/06 01:31:36;;;;;;;7.60;4.00;;;;;;;8.79;93.04;94867.50;5071238;28;20761;-58
2023/01/06 01:34:02;;;;;;;7.57;4.60;;;;;;;8.87;92.89;94877.06;5071163;28;20184;-54
2023/01/06 01:36:28;;;;;;;9.63;4.30;;;;;;;8.84;92.69;94864.63;5071210;28;20189;-56
2023/01/06 01:38:55;;;;;;;8.23;4.37;;;;;;;8.80;93.05;94860.72;5070786;28;20184;-57
2023/01/06 01:41:22;;;;;;;6.57;3.73;;;;;;;8.77;92.90;94856.69;5071179;28;20199;-53
2023/01/06 01:44:00;;;;;;;6.97;3.63;;;;;;;8.77;92.94;94850.78;5070778;28;20181;-53
2023/01/06 01:46:34;;;;;;;6.33;4.10;;;;;;;8.75;92.16;94861.06;5070852;28;20741;-57
2023/01/06 01:49:05;;;;;;;4.60;3.00;;;;;;;8.79;92.71;94864.97;5070681;28;20190;-55
2023/01/06 01:51:37;;;;;;;5.50;3.30;;;;;;;8.81;92.44;94842.03;5070356;28;20261;-56
2023/01/06 01:54:09;;;;;;;5.77;3.90;;;;;;;8.83;92.09;94838.47;5070388;28;20716;-54
2023/01/06 01:56:41;;;;;;;7.77;3.47;;;;;;;8.83;91.82;94827.53;5052984;28;20638;-57
2023/01/06 01:59:21;;;;;;;5.57;3.73;;;;;;;8.82;91.76;94826.75;5070811;28;20210;-53
2023/01/06 02:01:48;;;;;;;6.57;3.20;;;;;;;8.84;91.60;94839.28;5070810;28;20196;-54
2023/01/06 02:04:16;;;;;;;4.30;3.07;;;;;;;8.88;91.53;94855.88;5071004;28;20199;-57
2023/01/06 02:06:42;;;;;;;4.67;3.30;;;;;;;8.89;90.72;94870.16;5070540;28;20588;-53
2023/01/06 02:09:18;;;;;;;6.20;2.83;;;;;;;8.93;90.39;94891.81;5070472;28;20367;-54
2023/01/06 02:11:46;;;;;;;4.47;2.60;;;;;;;8.92;90.50;94892.75;5070830;28;20192;-57
2023/01/06 02:14:17;;;;;;;6.63;3.00;;;;;;;8.87;90.69;94897.34;5070526;28;20185;-54
2023/01/06 02:16:55;;;;;;;5.40;2.90;;;;;;;8.94;90.66;94885.84;5070906;28;20201;-53
2023/01/06 02:19:29;;;;;;;5.30;3.10;;;;;;;8.83;90.78;94893.44;5070524;28;20216;-53
2023/01/06 02:22:15;;;;;;;5.67;3.13;;;;;;;8.89;90.88;94882.84;5072295;28;20285;-53
2023/01/06 02:25:18;;;;;;;4.90;2.70;;;;;;;8.87;90.70;94882.97;5073957;28;20254;-52
2023/01/06 02:28:05;;;;;;;4.00;2.67;;;;;;;8.96;90.12;94900.03;5060428;28;20205;-54
2023/01/06 02:30:39;;;;;;;3.97;2.57;;;;;;;8.93;89.07;94920.53;5073891;28;20213;-56
2023/01/06 02:33:13;;;;;;;5.13;2.87;;;;;;;8.93;88.64;94923.06;5055860;28;20199;-56
2023/01/06 02:36:06;;;;;;;4.93;2.40;;;;;;;8.91;89.03;94935.03;5074091;28;20257;-55
2023/01/06 02:38:34;;;;;;;13.53;4.00;;;;;;;8.89;88.13;94941.13;5074001;28;20220;-55
2023/01/06 02:41:15;;;;;;;7.00;2.97;;;;;;;8.89;87.97;94938.59;5074131;28;20678;-57
2023/01/06 02:43:58;;;;;;;5.10;2.37;;;;;;;8.86;88.05;94946.44;5073996;28;20189;-54
2023/01/06 02:46:41;;;;;;;7.53;2.17;;;;;;;8.84;87.57;94938.16;5073842;28;20567;-57
2023/01/06 02:49:45;;;;;;;2.70;2.10;;;;;;;8.72;87.97;94928.91;5073917;28;20188;-54
2023/01/06 02:52:21;;;;;;;7.20;2.60;;;;;;;8.77;87.65;94935.25;5074279;28;20276;-53
2023/01/06 02:54:56;;;;;;;4.57;2.63;;;;;;;8.79;87.24;94943.53;5073438;28;20200;-53
2023/01/06 02:57:41;;;;;;;3.23;2.50;;;;;;;8.77;87.82;94936.97;5073558;28;20249;-57
2023/01/06 03:00:15;;;;;;;4.43;2.33;;;;;;;8.75;87.79;94941.34;5073904;28;20291;-57
2023/01/06 03:02:46;;;;;;;5.97;3.60;;;;;;;8.76;87.34;94932.84;5073519;28;20697;-52
2023/01/06 03:05:15;;;;;;;4.87;2.57;;;;;;;8.76;87.70;94927.75;5073700;28;20577;-57
2023/01/06 03:07:44;;;;;;;4.03;2.33;;;;;;;8.75;87.55;94921.06;5073228;28;20278;-57
2023/01/06 03:10:13;;;;;;;4.33;2.77;;;;;;;8.68;87.53;94915.66;5073521;28;20220;-53
2023/01/06 03:12:51;;;;;;;3.87;2.63;;;;;;;8.79;87.31;94927.53;5073298;28;20634;-53
2023/01/06 03:15:16;;;;;;;4.37;2.67;;;;;;;8.77;86.61;94931.91;5073685;28;20200;-54
2023/01/06 03:17:43;;;;;;;4.67;2.40;;;;;;;8.71;87.18;94905.28;5073349;28;20177;-54
2023/01/06 03:20:10;;;;;;;4.90;2.50;;;;;;;8.71;86.50;94914.59;5073511;28;20677;-56
2023/01/06 03:22:37;;;;;;;3.53;2.03;;;;;;;8.72;86.77;94908.63;5073074;28;20188;-53
2023/01/06 03:25:05;;;;;;;2.67;2.43;;;;;;;8.63;87.40;94907.56;5073044;28;20208;-54
2023/01/06 03:27:30;;;;;;;4.00;2.37;;;;;;;8.58;87.61;94911.38;5072924;28;20572;-57
2023/01/06 03:29:56;;;;;;;4.53;2.37;;;;;;;8.57;87.05;94907.22;5073258;28;20642;-54
2023/01/06 03:32:30;;;;;;;6.33;2.63;;;;;;;8.56;87.46;94913.22;5072594;28;20598;-55
2023/01/06 03:34:58;;;;;;;6.27;2.43;;;;;;;8.56;86.81;94915.75;5072818;28;20207;-52
2023/01/06 03:37:42;;;;;;;4.90;2.77;;;;;;;8.57;87.04;94932.53;5073035;28;20845;-53
2023/01/06 03:40:12;;;;;;;5.80;2.73;;;;;;;8.57;87.06;94937.59;5072857;28;20219;-56
2023/01/06 03:45:41;;;;;;;3.30;2.00;;;;;;;8.57;87.15;94937.59;5073187;28;20685;-57
2023/01/06 03:48:21;;;;;;;4.13;2.17;;;;;;;8.52;87.16;94944.75;5073080;28;20188;-57
2023/01/06 03:51:03;;;;;;;3.37;1.83;;;;;;;8.49;86.88;94955.91;5072978;28;20236;-53
2023/01/06 03:53:40;;;;;;;5.03;2.70;;;;;;;8.50;87.41;94974.44;5072768;28;20658;-53
2023/01/06 03:56:39;;;;;;;5.43;2.10;;;;;;;8.54;86.58;94980.91;5072768;28;20763;-59
2023/01/06 03:59:11;;;;;;;3.70;2.10;;;;;;;8.46;86.83;94976.41;5072312;28;20193;-53
2023/01/06 04:01:37;;;;;;;3.03;2.17;;;;;;;8.48;86.52;94981.34;5054558;28;20280;-56
2023/01/06 04:04:03;;;;;;;3.90;2.43;;;;;;;8.41;86.97;94971.66;5072296;28;20192;-56
2023/01/06 04:06:28;;;;;;;3.00;1.93;;;;;;;8.47;86.37;94978.00;5072384;28;20276;-55
2023/01/06 04:08:54;;;;;;;4.67;2.33;;;;;;;8.48;86.56;94999.09;5054299;28;20223;-54
2023/01/06 04:14:03;;;;;;;3.37;2.50;;;;;;;8.43;85.94;94999.41;5072391;28;20200;-58
2023/01/06 04:16:29;;;;;;;2.93;2.23;;;;;;;8.46;85.89;95000.00;5072801;28;20188;-56
2023/01/06 04:18:54;;;;;;;3.40;2.13;;;;;;;8.51;85.23;95002.19;5072203;28;20180;-57
2023/01/06 04:21:20;;;;;;;6.23;2.40;;;;;;;8.48;85.47;94989.78;5072542;28;20193;-54
2023/01/06 04:23:45;;;;;;;3.77;2.40;;;;;;;8.50;85.13;95002.31;5072438;28;20192;-53
2023/01/06 04:26:11;;;;;;;9.23;2.30;;;;;;;8.46;85.66;95020.25;5072368;28;20714;-56
2023/01/06 04:28:36;;;;;;;3.90;2.70;;;;;;;8.36;84.70;95021.81;5072361;28;20196;-56
2023/01/06 04:31:01;;;;;;;5.10;2.40;;;;;;;8.41;84.95;95047.66;5072227;28;20212;-57
2023/01/06 04:33:28;;;;;;;2.73;2.37;;;;;;;8.43;84.71;95053.41;5072200;28;20731;-57
2023/01/06 04:35:53;;;;;;;2.97;2.20;;;;;;;8.43;85.12;95063.56;5054026;28;20266;-56
2023/01/06 04:38:19;;;;;;;2.97;2.10;;;;;;;8.42;85.15;95064.47;5071910;28;20185;-54
2023/01/06 04:40:44;;;;;;;3.93;2.53;;;;;;;8.40;85.16;95060.44;5072107;28;20303;-55
2023/01/06 04:43:15;;;;;;;3.40;2.10;;;;;;;8.37;85.27;95068.22;5071789;28;20647;-54
2023/01/06 04:45:41;;;;;;;3.70;2.20;;;;;;;8.35;85.90;95054.88;5071168;28;20308;-54
2023/01/06 04:48:08;;;;;;;3.93;2.03;;;;;;;8.37;85.08;95047.97;5072027;28;20189;-55
2023/01/06 04:50:33;;;;;;;5.60;2.23;;;;;;;8.26;85.85;95033.50;5071489;28;20212;-55
2023/01/06 04:52:59;;;;;;;3.27;2.20;;;;;;;8.28;86.38;95043.56;5054282;28;20221;-56
2023/01/06 04:55:25;;;;;;;4.20;2.50;;;;;;;9.03;100.00;94852.22;5071638;28;20227;-53
2023/01/06 04:57:50;;;;;;;4.80;2.40;;;;;;;9.72;98.50;94944.97;5071569;28;20201;-53
2023/01/06 05:00:16;;;;;;;5.90;2.03;;;;;;;9.23;84.49;95161.75;5071902;28;20209;-54
2023/01/06 05:02:42;;;;;;;5.00;2.60;;;;;;;8.62;85.84;95115.47;5071598;28;20234;-57
2023/01/06 05:05:08;;;;;;;4.67;2.00;;;;;;;8.42;87.12;95073.81;5071570;28;20694;-54
2023/01/06 05:07:34;;;;;;;3.47;1.80;;;;;;;8.32;87.35;95065.22;5071427;28;20191;-56
2023/01/06 05:09:59;;;;;;;3.17;1.90;;;;;;;8.21;87.47;95068.47;5071780;28;20204;-58
2023/01/06 05:12:25;;;;;;;5.17;1.50;;;;;;;8.17;88.21;95056.91;5071480;28;20217;-58
2023/01/06 05:14:50;;;;;;;2.33;2.10;;;;;;;8.25;87.22;95064.84;5071316;28;20205;-55
2023/01/06 05:17:16;;;;;;;7.50;2.40;;;;;;;8.20;87.76;95064.28;5053503;28;20572;-57
2023/01/06 05:19:43;;;;;;;2.80;2.10;;;;;;;8.16;89.15;95057.03;5071379;28;20211;-55
2023/01/06 05:22:09;;;;;;;3.63;2.50;;;;;;;7.97;88.49;95052.41;5071301;28;20193;-56
2023/01/06 05:24:34;;;;;;;3.63;2.03;;;;;;;8.08;88.02;95080.31;5071578;28;20242;-56
2023/01/06 05:27:00;;;;;;;1.93;1.70;;;;;;;8.11;88.47;95077.59;5053730;28;20656;-56
2023/01/06 05:29:25;;;;;;;6.53;2.20;;;;;;;8.09;88.60;95079.44;5070713;28;20254;-55
2023/01/06 05:31:50;;;;;;;2.10;1.70;;;;;;;8.10;88.33;95075.97;5071478;28;20185;-56
2023/01/06 05:34:16;;;;;;;5.23;3.07;;;;;;;8.06;88.12;95081.38;5070995;28;20212;-56
2023/01/06 05:36:41;;;;;;;3.50;1.80;;;;;;;8.11;87.64;95087.72;5071294;28;20250;-59
2023/01/06 05:39:06;;;;;;;3.30;1.97;;;;;;;8.11;88.34;95087.72;5071158;28;20213;-58
2023/01/06 05:41:32;;;;;;;2.73;2.23;;;;;;;8.10;88.44;95090.38;5071296;28;20219;-60
2023/01/06 05:43:57;;;;;;;2.87;2.03;;;;;;;8.15;88.48;95101.78;5071060;28;20181;-58
2023/01/06 05:46:23;;;;;;;3.33;2.00;;;;;;;8.11;88.66;95087.72;5071222;28;20197;-57
2023/01/06 05:48:49;;;;;;;2.30;1.90;;;;;;;8.12;87.92;95081.72;5070806;28;20189;-59
2023/01/06 05:51:16;;;;;;;3.93;1.90;;;;;;;8.05;87.87;95088.16;5070956;28;20228;-54
2023/01/06 05:53:44;;;;;;;3.67;1.90;;;;;;;8.12;87.28;95103.75;5070836;28;20180;-57
2023/01/06 05:56:13;;;;;;;3.10;1.80;;;;;;;8.10;86.48;95126.59;5071070;28;20208;-54
2023/01/06 05:58:41;;;;;;;2.73;1.70;;;;;;;8.15;86.53;95119.53;5070714;28;20185;-59
2023/01/06 06:01:21;;;;;;;2.80;1.80;;;;;;;8.13;86.23;95133.19;5070660;28;20212;-56
2023/01/06 06:03:46;;;;;;;5.47;2.00;;;;;;;8.12;86.15;95134.91;5070621;28;20201;-55
2023/01/06 06:06:12;;;;;;;4.77;1.90;;;;;;;8.11;85.17;95156.09;5070587;28;20205;-59
2023/01/06 06:08:38;;;;;;;3.60;2.17;;;;;;;8.10;84.74;95161.25;5070687;28;20218;-55
2023/01/06 06:11:12;;;;;;;2.50;2.07;;;;;;;8.22;83.84;95194.16;5070723;28;20216;-55
2023/01/06 06:13:43;;;;;;;3.03;2.07;;;;;;;8.21;82.57;95207.75;5052619;28;20179;-55
2023/01/06 06:16:11;;;;;;;2.93;1.60;;;;;;;8.21;83.29;95194.25;5070400;28;20832;-55
2023/01/06 06:18:41;;;;;;;6.53;1.50;;;;;;;8.20;83.06;95212.91;5070407;28;20310;-54
2023/01/06 06:21:11;;;;;;;4.13;2.23;;;;;;;8.18;83.29;95205.41;5053343;28;20301;-58
2023/01/06 06:23:38;;;;;;;2.63;1.80;;;;;;;8.13;82.91;95196.50;5070805;28;20295;-56
2023/01/06 06:26:04;;;;;;;4.77;1.90;;;;;;;8.14;82.63;95200.66;5070182;28;20697;-55
2023/01/06 06:28:30;;;;;;;3.10;1.43;;;;;;;8.17;81.85;95221.50;5070522;28;20177;-57
2023/01/06 06:31:12;;;;;;;3.70;2.10;;;;;;;8.19;81.64;95219.69;5069936;28;20225;-57
2023/01/06 06:33:38;;;;;;;4.23;1.93;;;;;;;8.20;82.24;95218.75;5070091;28;20184;-57
2023/01/06 06:36:05;;;;;;;3.83;1.80;;;;;;;8.21;81.55;95230.53;5070190;28;20218;-59
2023/01/06 06:38:30;;;;;;;2.67;1.90;;;;;;;8.12;81.10;95221.00;5070489;28;20596;-55
2023/01/06 06:40:56;;;;;;;6.17;2.13;;;;;;;8.25;80.86;95247.19;5070058;28;20216;-55
2023/01/06 06:43:22;;;;;;;7.23;2.10;;;;;;;8.34;79.88;95266.81;5070503;28;20189;-60
2023/01/06 06:45:47;;;;;;;3.17;2.03;;;;;;;8.32;80.55;95252.66;5070479;28;20221;-58
2023/01/06 06:48:14;;;;;;;3.27;1.63;;;;;;;8.16;79.90;95249.47;5070298;28;20269;-57
2023/01/06 06:50:39;;;;;;;3.00;1.93;;;;;;;8.39;79.66;95267.34;5069838;28;20271;-59
2023/01/06 06:53:05;;;;;;;5.97;1.87;;;;;;;8.39;79.23;95277.47;5069775;28;20173;-55
2023/01/06 06:55:31;;;;;;;4.50;1.87;;;;;;;8.46;78.60;95286.28;5069711;28;20270;-55
2023/01/06 06:57:57;;;;;;;2.50;1.87;;;;;;;8.48;78.16;95305.63;5069686;28;20268;-56
2023/01/06 07:00:23;;;;;;;4.97;2.00;;;;;;;8.50;78.20;95306.34;5051764;28;20307;-55
2023/01/06 07:02:49;;;;;;;2.33;1.93;;;;;;;8.54;78.67;95303.53;5070009;28;20283;-56
2023/01/06 07:05:15;;;;;;;3.50;2.03;;;;;;;8.56;78.83;95295.81;5070232;28;20240;-57
2023/01/06 07:07:42;;;;;;;4.90;2.10;;;;;;;8.62;78.70;95293.69;5071133;28;20188;-58
2023/01/06 07:10:12;;;;;;;3.87;2.20;;;;;;;8.63;78.14;95304.59;5073307;28;20225;-59
2023/01/06 07:12:37;;;;;;;2.83;2.03;;;;;;;8.64;78.30;95293.56;5073454;28;20188;-60
2023/01/06 07:15:03;;;;;;;4.40;1.90;;;;;;;8.65;78.39;95290.94;5073286;28;20209;-54
2023/01/06 07:17:28;;;;;;;2.27;1.67;;;;;;;8.69;77.99;95311.81;5055383;28;20272;-60
2023/01/06 07:19:54;;;;;;;3.77;1.63;;;;;;;8.70;78.21;95299.06;5073069;28;20725;-59
2023/01/06 07:22:19;;;;;;;10.50;2.70;;;;;;;8.76;78.63;95310.50;5055154;28;20223;-58
2023/01/06 07:24:45;;;;;;;3.53;1.93;;;;;;;8.85;77.76;95320.00;5073013;28;20270;-58
2023/01/06 07:27:11;;;;;;;3.77;1.97;;;;;;;8.84;77.44;95342.03;5073417;28;20196;-58
2023/01/06 07:29:36;;;;;;;9.27;2.00;;;;;;;8.73;76.73;95338.56;5073022;28;20690;-57
2023/01/06 07:32:02;;;;;;;2.90;1.60;;;;;;;8.90;76.57;95361.09;5073073;28;20276;-54
2023/01/06 07:34:27;;;;;;;5.80;1.60;;;;;;;9.02;75.96;95385.63;5073016;28;20204;-58
2023/01/06 07:36:53;;;;;;;2.60;1.53;;;;;;;9.00;75.54;95387.44;5072969;28;20192;-59
2023/01/06 07:39:18;;;;;;;2.17;1.40;;;;;;;9.00;76.18;95387.44;5072836;28;20323;-59
2023/01/06 07:41:44;;;;;;;1.80;1.30;;;;;;;9.08;76.05;95372.53;5073230;28;20242;-57
2023/01/06 07:44:09;;;;;;;3.00;1.90;;;;;;;9.07;75.41;95398.81;5072995;28;20213;-54
2023/01/06 07:46:34;;;;;;;1.43;1.23;;;;;;;9.12;75.24;95414.53;5073253;28;20200;-58
2023/01/06 07:49:00;;;;;;;2.10;1.90;;;;;;;9.14;74.92;95430.47;5054720;28;20216;-57
2023/01/06 07:51:25;;;;;;;3.00;1.40;;;;;;;9.09;75.31;95413.00;5073056;28;20242;-61
2023/01/06 07:53:51;;;;;;;2.97;1.53;;;;;;;9.17;75.03;95420.13;5072891;28;20242;-59
2023/01/06 07:56:16;;;;;;;2.83;1.20;;;;;;;9.26;74.44;95424.56;5072737;28;20619;-54
2023/01/06 07:58:42;;;;;;;2.37;1.43;;;;;;;9.26;74.17;95432.16;5072664;28;20216;-56
2023/01/06 08:01:08;;;;;;;3.93;1.70;;;;;;;9.24;74.35;95418.78;5072767;28;20765;-54
2023/01/06 08:03:33;;;;;;;2.90;1.40;;;;;;;9.33;74.45;95418.19;5072503;28;20185;-55
2023/01/06 08:05:59;;;;;;;2.87;1.43;;;;;;;9.47;74.43;95428.19;5072680;28;20654;-55
2023/01/06 08:08:24;;;;;;;2.43;1.63;;;;;;;9.50;74.29;95443.19;5072693;28;20259;-58
2023/01/06 08:10:50;;;;;;;1.50;1.40;;;;;;;9.61;73.52;95450.91;5072079;28;20224;-57
2023/01/06 08:13:15;;;;;;;2.40;1.30;;;;;;;9.50;74.11;95443.19;5072477;28;20654;-55
2023/01/06 08:15:41;;;;;;;2.00;1.20;;;;;;;9.63;73.72;95449.09;5072456;28;20213;-60
2023/01/06 08:18:06;;;;;;;3.57;1.40;;;;;;;9.71;73.44;95466.31;5072047;28;20264;-56
2023/01/06 08:20:35;;;;;;;2.70;1.60;;;;;;;9.79;72.94;95469.97;5071378;28;20682;-59
2023/01/06 08:23:01;;;;;;;2.33;2.07;;;;;;;10.09;72.07;95500.88;5072014;28;20177;-55
2023/01/06 08:25:26;;;;;;;5.13;1.90;;;;;;;10.34;71.65;95494.94;5072234;28;20288;-55
2023/01/06 08:27:52;;;;;;;1.93;1.60;;;;;;;10.06;71.08;95500.25;5072122;28;20267;-55
2023/01/06 08:30:20;;;;;;;1.77;1.37;;;;;;;9.87;71.42;95477.06;5071938;28;20205;-58
2023/01/06 08:32:47;;;;;;;1.47;1.37;;;;;;;10.25;70.44;95523.50;5072083;28;20259;-56
2023/01/06 08:35:12;;;;;;;4.53;1.60;;;;;;;10.44;69.77;95534.03;5072012;28;20555;-59
2023/01/06 08:37:38;;;;;;;3.40;1.50;;;;;;;10.51;69.66;95549.66;5072057;28;20682;-60
2023/01/06 08:40:04;;;;;;;3.50;1.40;;;;;;;10.70;68.63;95567.78;5071824;28;20197;-59
2023/01/06 08:42:29;;;;;;;3.50;1.43;;;;;;;10.62;68.10;95560.72;5072252;28;20788;-57
2023/01/06 08:44:55;;;;;;;2.83;1.23;;;;;;;10.34;68.78;95545.75;5071992;28;20197;-56
2023/01/06 08:47:20;;;;;;;2.20;1.30;;;;;;;10.17;69.16;95512.25;5072003;28;20185;-59
2023/01/06 08:49:45;;;;;;;1.20;1.00;;;;;;;10.27;68.59;95542.00;5053755;28;20295;-58
2023/01/06 08:52:11;;;;;;;3.87;1.20;;;;;;;10.42;69.05;95520.63;5071949;28;20197;-60
2023/01/06 08:54:36;;;;;;;2.67;1.27;;;;;;;10.49;68.12;95531.16;5071723;28;20189;-58
2023/01/06 08:57:02;;;;;;;3.30;1.20;;;;;;;10.58;67.48;95556.75;5071793;28;20197;-56
2023/01/06 08:59:27;;;;;;;2.63;1.47;;;;;;;10.55;67.56;95548.50;5071597;28;20212;-55
2023/01/06 09:01:53;;;;;;;4.80;1.20;;;;;;;10.50;67.71;95541.22;5071789;28;20197;-55
2023/01/06 09:04:18;;;;;;;4.17;1.80;;;;;;;10.77;67.03;95551.97;5071598;28;20747;-58
2023/01/06 09:06:46;;;;;;;3.10;1.93;;;;;;;10.93;66.58;95559.31;5071469;28;20227;-58
2023/01/06 09:09:12;;;;;;;2.93;1.63;;;;;;;10.98;65.14;95606.44;5071395;28;20185;-59
2023/01/06 09:11:40;;;;;;;5.97;1.60;;;;;;;10.56;65.37;95563.69;5071950;28;20193;-56
2023/01/06 09:14:07;;;;;;;2.83;1.23;;;;;;;10.56;65.66;95560.31;5071332;28;20729;-59
2023/01/06 09:16:32;;;;;;;6.00;1.13;;;;;;;10.95;65.11;95581.19;5071744;28;20244;-56
2023/01/06 09:18:58;;;;;;;2.00;0.87;;;;;;;10.74;65.46;95559.03;5053199;28;20225;-55
2023/01/06 09:21:24;;;;;;;1.40;0.97;;;;;;;10.76;65.35;95572.44;5071429;28;20254;-57
2023/01/06 09:23:50;;;;;;;1.63;0.90;;;;;;;10.63;65.55;95551.31;5071351;28;20184;-56
2023/01/06 09:26:17;;;;;;;8.43;1.00;;;;;;;10.55;65.25;95534.06;5071360;28;20596;-58
2023/01/06 09:28:43;;;;;;;3.93;0.90;;;;;;;10.67;65.11;95550.19;5071281;28;20192;-59
2023/01/06 09:31:08;;;;;;;2.30;1.10;;;;;;;10.62;64.19;95578.50;5071042;28;20216;-59
2023/01/06 09:33:34;;;;;;;4.93;1.00;;;;;;;10.56;64.69;95543.34;5071227;28;20645;-55
2023/01/06 09:36:00;;;;;;;2.37;1.20;;;;;;;10.53;64.54;95517.31;5071585;28;20235;-58
2023/01/06 09:38:27;;;;;;;3.50;0.83;;;;;;;10.46;64.22;95532.19;5071246;28;20185;-56
2023/01/06 09:41:16;;;;;;;5.27;0.90;;;;;;;10.43;63.74;95534.94;5071414;28;20277;-59
2023/01/06 09:43:57;;;;;;;3.50;1.03;;;;;;;10.48;63.90;95527.81;5071093;28;20698;-56
2023/01/06 09:46:27;;;;;;;3.97;1.03;;;;;;;10.47;64.17;95512.66;5071411;28;20195;-56
2023/01/06 09:48:55;;;;;;;4.23;1.20;;;;;;;10.91;63.49;95528.09;5071036;28;20188;-59
2023/01/06 09:51:23;;;;;;;4.60;1.13;;;;;;;10.43;64.43;95521.41;5070752;28;20209;-60
2023/01/06 09:53:54;;;;;;;1.13;0.83;;;;;;;10.46;64.74;95501.69;5070843;28;20640;-56
2023/01/06 09:56:23;;;;;;;2.77;1.20;;;;;;;10.93;63.75;95527.06;5071289;28;20193;-55
2023/01/06 09:59:21;;;;;;;1.60;1.20;;;;;;;11.41;62.09;95585.53;5070951;28;20196;-55
2023/01/06 10:01:48;;;;;;;3.87;1.13;;;;;;;11.55;62.25;95572.59;5032542;28;20300;-56
2023/01/06 10:04:24;;;;;;;1.40;1.10;;;;;;;11.32;62.12;95588.72;5070751;28;20231;-56
2023/01/06 10:07:06;;;;;;;3.00;0.80;;;;;;;11.39;61.76;95569.56;5071033;28;20189;-54
2023/01/06 10:09:37;;;;;;;1.87;1.33;;;;;;;11.34;61.55;95569.88;5070803;28;20213;-55
2023/01/06 10:12:41;;;;;;;4.53;0.87;;;;;;;11.39;61.01;95611.06;5070629;28;20205;-59
2023/01/06 10:15:22;;;;;;;4.03;0.97;;;;;;;12.20;72.56;95294.94;5070715;28;20232;-59
2023/01/06 10:18:03;;;;;;;2.13;1.27;;;;;;;11.56;70.99;95315.28;5068582;28;20184;-58
2023/01/06 10:21:01;;;;;;;4.77;0.93;;;;;;;12.34;65.11;95544.50;5069518;28;20245;-56
2023/01/06 10:23:39;;;;;;;1.40;0.80;;;;;;;11.31;63.31;95537.00;5070626;28;20200;-57
2023/01/06 10:26:13;;;;;;;1.60;1.07;;;;;;;10.98;65.14;95474.13;5070701;28;20212;-54
2023/01/06 10:28:46;;;;;;;2.17;0.60;;;;;;;10.77;64.63;95477.41;5070631;28;20196;-55
2023/01/06 10:31:18;;;;;;;1.20;0.93;;;;;;;11.02;64.03;95500.16;5070407;28;20243;-56
2023/01/06 10:33:49;;;;;;;1.20;1.00;;;;;;;11.39;62.77;95534.69;5070335;28;20200;-59
2023/01/06 10:36:19;;;;;;;1.47;1.00;;;;;;;10.98;63.40;95525.03;5070389;28;20241;-55
2023/01/06 10:38:49;;;;;;;5.17;0.87;;;;;;;11.08;62.47;95531.97;5070009;28;20193;-55
2023/01/06 10:41:40;;;;;;;0.97;0.80;;;;;;;11.26;61.76;95551.00;5069776;28;20205;-55
2023/01/06 10:44:08;;;;;;;3.77;1.10;;;;;;;11.68;60.83;95586.88;5073592;28;20181;-56
2023/01/06 10:46:35;;;;;;;2.40;0.90;;;;;;;11.33;61.65;95537.69;5072727;28;20189;-58
2023/01/06 10:49:13;;;;;;;1.60;0.93;;;;;;;11.03;62.66;95500.97;5071951;28;20196;-59
2023/01/06 10:51:42;;;;;;;1.87;0.90;;;;;;;11.21;62.59;95482.59;5073831;28;20711;-57
2023/01/06 10:54:14;;;;;;;3.27;1.53;;;;;;;11.78;60.80;95534.31;5073412;28;20189;-59
2023/01/06 10:56:47;;;;;;;2.43;1.73;;;;;;;12.25;59.73;95570.69;5073678;28;20214;-55
2023/01/06 10:59:13;;;;;;;1.53;1.00;;;;;;;12.47;59.83;95571.47;5055498;28;20227;-56
2023/01/06 11:01:56;;;;;;;1.20;0.87;;;;;;;11.94;60.14;95543.38;5073811;28;20185;-55
2023/01/06 11:04:23;;;;;;;2.80;0.80;;;;;;;11.76;59.67;95548.91;5055241;28;20216;-60
2023/01/06 11:06:51;;;;;;;1.90;1.17;;;;;;;11.32;60.16;95525.09;5073291;28;20185;-60
2023/01/06 11:09:38;;;;;;;3.80;0.77;;;;;;;10.96;61.28;95490.44;5073384;28;20205;-56
2023/01/06 11:12:21;;;;;;;1.57;1.10;;;;;;;11.27;61.34;95494.88;5073127;28;20188;-58
2023/01/06 11:15:05;;;;;;;1.13;1.07;;;;;;;11.65;60.81;95518.31;5072859;28;20213;-60
2023/01/06 11:17:30;;;;;;;1.67;1.10;;;;;;;11.66;60.62;95507.22;5073010;28;20549;-57
2023/01/06 11:20:16;;;;;;;1.70;1.10;;;;;;;11.51;60.19;95533.78;5070738;28;20548;-57
2023/01/06 11:22:42;;;;;;;1.70;1.03;;;;;;;11.45;60.67;95513.09;5070969;28;20556;-54
2023/01/06 11:25:20;;;;;;;2.13;1.17;;;;;;;11.39;61.18;95486.31;5071645;28;20212;-58
2023/01/06 11:28:13;;;;;;;0.83;0.80;;;;;;;11.32;62.00;95475.00;5055248;28;20666;-56
2023/01/06 11:31:09;;;;;;;3.80;0.87;;;;;;;11.38;61.92;95469.44;5073091;28;20231;-54
2023/01/06 11:33:37;;;;;;;2.43;1.03;;;;;;;11.45;61.02;95487.63;5072993;28;20197;-58
2023/01/06 11:36:11;;;;;;;3.40;1.20;;;;;;;11.28;61.22;95478.69;5073285;28;20259;-55
2023/01/06 11:39:11;;;;;;;1.50;1.03;;;;;;;11.40;61.39;95480.31;5073141;28;20598;-54
2023/01/06 11:41:39;;;;;;;2.23;1.27;;;;;;;11.41;61.29;95481.16;5068020;28;20196;-56
2023/01/06 11:44:16;;;;;;;3.10;1.03;;;;;;;11.52;60.71;95479.41;5072589;28;20185;-56
2023/01/06 11:46:55;;;;;;;1.10;1.00;;;;;;;11.79;60.25;95507.13;5073128;28;20210;-55
2023/01/06 11:49:42;;;;;;;5.23;1.30;;;;;;;11.86;59.72;95522.75;5072394;28;20215;-55
2023/01/06 11:52:16;;;;;;;1.57;0.90;;;;;;;11.86;59.82;95522.75;5054454;28;20200;-57
2023/01/06 11:54:43;;;;;;;2.70;1.27;;;;;;;11.90;59.48;95524.94;5072432;28;20451;-58
2023/01/06 11:57:40;;;;;;;1.53;0.90;;;;;;;11.96;59.95;95537.22;5072616;28;20204;-59
2023/01/06 12:00:37;;;;;;;1.70;1.20;;;;;;;11.73;60.64;95512.69;5014634;28;20236;-58